Terminal Aerodrome Forecast
Issued by NWS

Home | Current Version | Previous Version | Text Only | Print | Product List | Glossary On
Versions: 1 2 3 4 5 6 7 8 9 10 11 12 13 14 15 16 17 18 19 20 21 22 23 24 25 26 27 28 29
839
FTUS42 KFFC 230520
TAFPDK
TAF
KPDK 230520Z 2306/2406 22010G20KT P6SM -SHRA SCT009 OVC015
      TEMPO 2307/2311 4SM -SHRA BKN008
     FM231100 30010G20KT P6SM BKN009 OVC050
     FM231500 31018G30KT P6SM BKN015 BKN050
     FM232000 31018G30KT P6SM SCT015 BKN025
     FM240400 31015G25KT P6SM BKN015=

USA.gov is the U.S. government's official web portal to all federal, state and local government web resources and services.